createdAt,value
2023-04-21T00:00:16.085Z,9.10
2023-04-21T00:02:43.899Z,9.23
2023-04-21T00:05:12.790Z,9.33
2023-04-21T00:07:41.904Z,9.00
2023-04-21T00:10:11.353Z,9.37
2023-04-21T00:12:39.301Z,8.47
2023-04-21T00:15:08.241Z,8.77
2023-04-21T00:17:36.014Z,8.87
2023-04-21T00:20:05.625Z,9.03
2023-04-21T00:22:33.429Z,9.47
2023-04-21T00:25:01.012Z,8.97
2023-04-21T00:27:29.143Z,9.43
2023-04-21T00:29:57.023Z,9.37
2023-04-21T00:32:24.624Z,9.30
2023-04-21T00:34:52.446Z,9.80
2023-04-21T00:37:20.071Z,9.87
2023-04-21T00:39:47.684Z,9.60
2023-04-21T00:42:18.256Z,9.00
2023-04-21T00:44:45.960Z,9.20
2023-04-21T00:47:14.221Z,9.53
2023-04-21T00:49:42.924Z,9.07
2023-04-21T00:52:10.715Z,9.00
2023-04-21T00:54:38.640Z,9.00
2023-04-21T00:57:08.283Z,9.20
2023-04-21T00:59:36.709Z,9.00
2023-04-21T01:02:04.778Z,9.50
2023-04-21T01:04:37.219Z,9.00
2023-04-21T01:07:06.278Z,9.50
2023-04-21T01:09:34.931Z,9.37
2023-04-21T01:12:08.626Z,9.60
2023-04-21T01:14:38.583Z,9.20
2023-04-21T01:17:08.768Z,9.63
2023-04-21T01:19:42.992Z,9.67
2023-04-21T01:22:12.549Z,9.27
2023-04-21T01:24:47.498Z,9.70
2023-04-21T01:27:20.026Z,8.93
2023-04-21T01:29:52.299Z,9.10
2023-04-21T01:32:24.501Z,9.33
2023-04-21T01:34:52.816Z,8.97
2023-04-21T01:37:24.781Z,9.50
2023-04-21T01:39:55.991Z,9.77
2023-04-21T01:42:27.951Z,9.97
2023-04-21T01:44:56.021Z,9.07
2023-04-21T01:47:25.375Z,9.73
2023-04-21T01:49:53.928Z,9.87
2023-04-21T01:52:21.850Z,8.93
2023-04-21T01:54:50.032Z,9.37
2023-04-21T01:57:18.185Z,9.37
2023-04-21T01:59:46.013Z,9.23
2023-04-21T02:02:13.753Z,9.57
2023-04-21T02:04:41.819Z,9.70
2023-04-21T02:07:09.447Z,9.73
2023-04-21T02:09:37.155Z,10.10
2023-04-21T02:12:05.015Z,9.63
2023-04-21T02:14:33.045Z,9.80
2023-04-21T02:17:00.726Z,9.73
2023-04-21T02:19:28.484Z,9.67
2023-04-21T02:21:56.177Z,9.60
2023-04-21T02:24:23.935Z,9.93
2023-04-21T02:26:51.432Z,9.50
2023-04-21T02:29:19.249Z,9.73
2023-04-21T02:31:58.816Z,8.87
2023-04-21T02:34:28.718Z,9.80
2023-04-21T02:36:56.352Z,9.80
2023-04-21T02:39:23.984Z,10.87
2023-04-21T02:41:51.629Z,10.20
2023-04-21T02:44:19.262Z,10.33
2023-04-21T02:46:47.075Z,10.47
2023-04-21T02:49:14.646Z,11.23
2023-04-21T02:51:42.242Z,10.10
2023-04-21T02:54:09.929Z,10.80
2023-04-21T02:56:37.568Z,10.20
2023-04-21T02:59:05.561Z,10.57
2023-04-21T03:01:33.065Z,10.43
2023-04-21T03:04:00.724Z,10.60
2023-04-21T03:06:28.557Z,10.77
2023-04-21T03:08:56.992Z,10.77
2023-04-21T03:11:24.469Z,11.50
2023-04-21T03:13:52.051Z,10.50
2023-04-21T03:16:20.115Z,10.00
2023-04-21T03:18:47.631Z,13.20
2023-04-21T03:21:15.216Z,15.20
2023-04-21T03:23:42.800Z,14.53
2023-04-21T03:26:10.475Z,11.33
2023-04-21T03:28:38.247Z,10.00
2023-04-21T03:31:05.997Z,10.40
2023-04-21T03:33:33.488Z,9.93
2023-04-21T03:36:02.150Z,10.30
2023-04-21T03:38:30.270Z,10.77
2023-04-21T03:40:57.768Z,10.83
2023-04-21T03:43:25.317Z,11.03
2023-04-21T03:45:52.942Z,11.20
2023-04-21T03:48:20.712Z,10.73
2023-04-21T03:50:48.491Z,11.00
2023-04-21T03:53:15.957Z,10.43
2023-04-21T03:55:43.810Z,10.43
2023-04-21T03:58:11.308Z,10.50
2023-04-21T04:00:38.810Z,10.10
2023-04-21T04:03:07.818Z,10.47
2023-04-21T04:05:39.019Z,11.07
2023-04-21T04:08:06.835Z,11.00
2023-04-21T04:10:34.376Z,11.03
2023-04-21T04:13:01.844Z,10.97
2023-04-21T04:15:29.472Z,10.70
2023-04-21T04:17:57.124Z,11.53
2023-04-21T04:20:25.023Z,10.90
2023-04-21T04:22:52.636Z,10.70
2023-04-21T04:25:20.601Z,10.77
2023-04-21T04:27:50.393Z,10.07
2023-04-21T04:30:18.208Z,11.53
2023-04-21T04:32:45.878Z,10.83
2023-04-21T04:35:13.855Z,10.30
2023-04-21T04:37:41.536Z,10.43
2023-04-21T04:40:12.395Z,11.20
2023-04-21T04:42:40.392Z,11.73
2023-04-21T04:45:09.545Z,11.77
2023-04-21T04:47:37.869Z,11.63
2023-04-21T04:50:07.411Z,11.50
2023-04-21T04:52:35.043Z,10.90
2023-04-21T04:55:03.091Z,10.40
2023-04-21T04:57:31.551Z,11.30
2023-04-21T04:59:59.065Z,11.50
2023-04-21T05:02:26.928Z,11.77
2023-04-21T05:04:54.576Z,11.67
2023-04-21T05:07:22.201Z,12.77
2023-04-21T05:09:49.707Z,11.80
2023-04-21T05:12:17.284Z,12.63
2023-04-21T05:14:44.792Z,12.70
2023-04-21T05:17:12.403Z,12.83
2023-04-21T05:19:40.062Z,12.70
2023-04-21T05:22:07.649Z,12.37
2023-04-21T05:24:35.211Z,14.00
2023-04-21T05:27:05.982Z,14.00
2023-04-21T05:29:34.579Z,12.70
2023-04-21T05:32:02.358Z,12.00
2023-04-21T05:34:29.984Z,11.70
2023-04-21T05:36:57.874Z,11.80
2023-04-21T05:39:25.998Z,11.53
2023-04-21T05:41:53.436Z,11.20
2023-04-21T05:44:21.266Z,10.63
2023-04-21T05:46:48.929Z,11.40
2023-04-21T05:49:16.445Z,11.27
2023-04-21T05:51:44.000Z,11.70
2023-04-21T05:54:11.443Z,11.63
2023-04-21T05:56:39.094Z,10.67
2023-04-21T05:59:07.201Z,11.43
2023-04-21T06:01:34.795Z,11.17
2023-04-21T06:04:02.491Z,11.80
2023-04-21T06:06:30.719Z,10.83
2023-04-21T06:08:58.239Z,11.00
2023-04-21T06:11:26.164Z,10.87
2023-04-21T06:13:58.435Z,10.50
2023-04-21T06:16:27.184Z,11.67
2023-04-21T06:18:54.852Z,11.77
2023-04-21T06:21:22.372Z,11.00
2023-04-21T06:23:49.883Z,11.37
2023-04-21T06:26:17.393Z,11.70
2023-04-21T06:28:44.823Z,11.17
2023-04-21T06:31:15.675Z,11.40
2023-04-21T06:33:43.427Z,11.67
2023-04-21T06:36:10.960Z,11.03
2023-04-21T06:38:40.108Z,11.33
2023-04-21T06:41:07.875Z,10.67
2023-04-21T06:43:35.560Z,11.07
2023-04-21T06:46:03.458Z,11.20
2023-04-21T06:48:31.216Z,11.13
2023-04-21T06:50:59.093Z,10.67
2023-04-21T06:53:26.680Z,11.17
2023-04-21T06:55:54.259Z,10.30
2023-04-21T06:58:21.757Z,11.17
2023-04-21T07:00:49.311Z,10.67
2023-04-21T07:03:16.851Z,11.10
2023-04-21T07:05:44.401Z,10.77
2023-04-21T07:08:11.961Z,10.60
2023-04-21T07:10:39.449Z,10.47
2023-04-21T07:13:09.477Z,10.57
2023-04-21T07:15:37.555Z,11.33
2023-04-21T07:18:05.186Z,10.67
2023-04-21T07:20:32.844Z,10.60
2023-04-21T07:23:00.344Z,11.03
2023-04-21T07:25:27.928Z,10.20
2023-04-21T07:27:55.455Z,10.90
2023-04-21T07:30:23.143Z,10.47
2023-04-21T07:32:50.800Z,9.83
2023-04-21T07:35:18.407Z,10.37
2023-04-21T07:37:46.178Z,10.53
2023-04-21T07:40:14.433Z,10.47
2023-04-21T07:42:41.921Z,10.30
2023-04-21T07:45:09.990Z,10.13
2023-04-21T07:47:37.614Z,9.93
2023-04-21T07:50:06.181Z,10.60
2023-04-21T07:52:35.255Z,10.07
2023-04-21T07:55:02.741Z,9.97
2023-04-21T07:57:32.211Z,10.40
2023-04-21T07:59:59.677Z,11.17
2023-04-21T08:02:27.263Z,10.20
2023-04-21T08:04:54.834Z,10.73
2023-04-21T08:07:22.473Z,9.53
2023-04-21T08:09:49.958Z,10.43
2023-04-21T08:12:17.670Z,8.80
2023-04-21T08:14:45.185Z,8.80
2023-04-21T08:17:12.799Z,9.10
2023-04-21T08:19:40.610Z,9.30
2023-04-21T08:22:08.118Z,8.67
2023-04-21T08:24:35.786Z,9.40
2023-04-21T08:27:03.926Z,9.00
2023-04-21T08:29:31.502Z,8.57
2023-04-21T08:31:59.118Z,9.67
2023-04-21T08:34:27.889Z,9.10
2023-04-21T08:36:55.797Z,8.97
2023-04-21T08:39:23.298Z,8.50
2023-04-21T08:41:52.019Z,8.33
2023-04-21T08:44:21.365Z,8.37
2023-04-21T08:46:52.180Z,8.97
2023-04-21T08:49:21.742Z,8.27
2023-04-21T08:51:49.392Z,8.27
2023-04-21T08:54:16.958Z,9.03
2023-04-21T08:56:44.458Z,7.87
2023-04-21T08:59:11.982Z,8.23
2023-04-21T09:02:18.089Z,8.60
2023-04-21T09:04:52.178Z,7.80
2023-04-21T09:07:41.616Z,8.10
2023-04-21T09:10:09.436Z,7.13
2023-04-21T09:12:41.025Z,7.27
2023-04-21T09:15:12.779Z,7.73
2023-04-21T09:17:40.279Z,7.63
2023-04-21T09:20:19.566Z,7.37
2023-04-21T09:22:51.405Z,6.83
2023-04-21T09:25:23.183Z,6.93
2023-04-21T09:27:51.279Z,7.73
2023-04-21T09:30:20.546Z,7.83
2023-04-21T09:32:48.207Z,7.77
2023-04-21T09:35:15.846Z,7.23
2023-04-21T09:37:46.416Z,8.03
2023-04-21T09:40:18.988Z,7.70
2023-04-21T09:42:47.169Z,8.50
2023-04-21T09:47:53.764Z,7.27
2023-04-21T09:50:54.273Z,7.20
2023-04-21T09:53:17.306Z,6.87
2023-04-21T09:55:50.612Z,7.17
2023-04-21T09:58:24.353Z,7.47
2023-04-21T10:00:54.112Z,7.30
2023-04-21T10:03:27.303Z,6.60
2023-04-21T10:05:55.857Z,6.27
2023-04-21T10:08:23.597Z,6.93
2023-04-21T10:10:53.088Z,5.40
2023-04-21T10:13:20.831Z,6.00
2023-04-21T10:15:48.470Z,5.70
2023-04-21T10:18:23.586Z,5.80
2023-04-21T10:21:07.383Z,6.30
2023-04-21T10:23:38.107Z,5.80
2023-04-21T10:26:12.415Z,10.47
2023-04-21T10:29:08.234Z,7.63
2023-04-21T10:31:54.433Z,5.80
2023-04-21T10:34:26.549Z,6.33
2023-04-21T10:36:56.995Z,7.47
2023-04-21T10:39:33.726Z,6.70
2023-04-21T10:42:13.420Z,6.68
2023-04-21T10:44:44.838Z,6.85
2023-04-21T10:47:12.516Z,8.02
2023-04-21T10:49:41.196Z,6.90
2023-04-21T10:52:11.149Z,5.40
2023-04-21T10:54:47.473Z,5.53
2023-04-21T10:57:20.316Z,4.82
2023-04-21T10:59:49.817Z,4.93
2023-04-21T11:02:19.448Z,4.93
2023-04-21T11:04:53.010Z,5.35
2023-04-21T11:07:23.901Z,5.28
2023-04-21T11:10:07.101Z,5.30
2023-04-21T11:12:40.463Z,5.13
2023-04-21T11:15:12.137Z,5.38
2023-04-21T11:17:40.194Z,5.20
2023-04-21T11:20:08.991Z,5.25
2023-04-21T11:22:38.898Z,5.07
2023-04-21T11:25:17.574Z,5.45
2023-04-21T11:27:57.642Z,4.75
2023-04-21T11:30:35.285Z,4.93
2023-04-21T11:33:03.276Z,4.28
2023-04-21T11:35:32.341Z,4.45
2023-04-21T11:38:05.746Z,5.05
2023-04-21T11:40:48.494Z,5.07
2023-04-21T11:43:16.092Z,4.53
2023-04-21T11:45:43.753Z,4.60
2023-04-21T11:48:19.716Z,4.53
2023-04-21T11:50:51.517Z,4.50
2023-04-21T11:53:20.012Z,4.28
2023-04-21T11:55:47.600Z,4.35
2023-04-21T11:58:18.170Z,4.45
2023-04-21T12:00:46.623Z,4.63
2023-04-21T12:03:14.884Z,4.75
2023-04-21T12:05:42.752Z,5.03
2023-04-21T12:08:16.780Z,4.75
2023-04-21T12:10:49.194Z,5.32
2023-04-21T12:13:28.980Z,4.10
2023-04-21T12:15:56.872Z,6.18
2023-04-21T12:18:28.547Z,5.93
2023-04-21T12:20:56.116Z,4.50
2023-04-21T12:23:23.633Z,4.63
2023-04-21T12:25:51.717Z,5.13
2023-04-21T12:28:19.339Z,4.50
2023-04-21T12:30:46.919Z,5.25
2023-04-21T12:33:14.468Z,5.05
2023-04-21T12:35:42.222Z,4.88
2023-04-21T12:38:10.098Z,4.75
2023-04-21T12:40:37.595Z,5.28
2023-04-21T12:43:05.058Z,4.70
2023-04-21T12:45:33.133Z,4.75
2023-04-21T12:48:01.312Z,4.95
2023-04-21T12:50:28.779Z,4.50
2023-04-21T12:52:56.309Z,5.30
2023-04-21T12:55:24.357Z,4.70
2023-04-21T12:57:52.969Z,4.68
2023-04-21T13:00:22.200Z,5.00
2023-04-21T13:02:49.793Z,4.25
2023-04-21T13:05:17.497Z,4.90
2023-04-21T13:07:45.042Z,4.97
2023-04-21T13:10:12.881Z,4.65
2023-04-21T13:12:41.567Z,4.80
2023-04-21T13:15:09.930Z,5.20
2023-04-21T13:17:37.444Z,4.93
2023-04-21T13:20:07.413Z,5.30
2023-04-21T13:22:35.875Z,5.50
2023-04-21T13:25:04.741Z,5.40
2023-04-21T13:27:33.533Z,5.28
2023-04-21T13:30:01.331Z,5.03
2023-04-21T13:32:28.882Z,5.95
2023-04-21T13:34:56.481Z,4.90
2023-04-21T13:37:23.992Z,5.40
2023-04-21T13:39:52.071Z,5.43
2023-04-21T13:42:19.612Z,5.53
2023-04-21T13:44:47.320Z,5.50
2023-04-21T13:47:15.814Z,5.63
2023-04-21T13:49:43.380Z,5.57
2023-04-21T13:52:10.844Z,6.40
2023-04-21T13:54:38.712Z,5.57
2023-04-21T13:57:06.335Z,5.75
2023-04-21T13:59:34.407Z,6.25
2023-04-21T14:02:02.610Z,5.75
2023-04-21T14:04:31.158Z,5.03
2023-04-21T14:06:59.022Z,5.50
2023-04-21T14:09:26.792Z,4.78
2023-04-21T14:11:54.326Z,5.07
2023-04-21T14:14:37.378Z,4.80
2023-04-21T14:17:05.296Z,5.78
2023-04-21T14:19:32.953Z,5.25
2023-04-21T14:22:00.666Z,5.18
2023-04-21T14:24:30.288Z,5.28
2023-04-21T14:26:58.290Z,4.97
2023-04-21T14:29:26.212Z,5.10
2023-04-21T14:31:57.957Z,5.13
2023-04-21T14:34:26.488Z,5.32
2023-04-21T14:36:54.700Z,5.00
2023-04-21T14:39:22.368Z,4.95
2023-04-21T14:41:49.922Z,5.55
2023-04-21T14:44:19.094Z,5.07
2023-04-21T14:46:53.737Z,5.43
2023-04-21T14:49:33.814Z,4.73
2023-04-21T14:52:01.828Z,4.97
2023-04-21T14:54:29.346Z,6.20
2023-04-21T14:57:10.438Z,5.47
2023-04-21T14:59:46.963Z,5.70
2023-04-21T15:02:14.883Z,5.37
2023-04-21T15:04:42.576Z,5.43
2023-04-21T15:07:10.211Z,4.70
2023-04-21T15:09:39.219Z,4.82
2023-04-21T15:12:07.659Z,5.15
2023-04-21T15:14:35.226Z,5.07
2023-04-21T15:17:02.938Z,5.00
2023-04-21T15:19:30.758Z,6.45
2023-04-21T15:21:58.798Z,5.35
2023-04-21T15:24:26.245Z,5.00
2023-04-21T15:26:53.692Z,4.80
2023-04-21T15:29:21.232Z,4.78
2023-04-21T15:31:48.880Z,4.43
2023-04-21T15:34:16.349Z,4.95
2023-04-21T15:36:44.376Z,4.60
2023-04-21T15:39:14.363Z,4.85
2023-04-21T15:41:42.581Z,5.03
2023-04-21T15:44:11.250Z,5.63
2023-04-21T15:46:38.975Z,4.93
2023-04-21T15:49:06.533Z,4.68
2023-04-21T15:51:35.754Z,5.43
2023-04-21T15:54:04.610Z,5.63
2023-04-21T15:56:32.162Z,5.78
2023-04-21T15:58:59.681Z,4.90
2023-04-21T16:01:27.312Z,5.28
2023-04-21T16:03:55.096Z,5.07
2023-04-21T16:06:24.290Z,4.97
2023-04-21T16:08:51.893Z,5.30
2023-04-21T16:11:19.473Z,5.30
2023-04-21T16:13:47.013Z,5.03
2023-04-21T16:16:14.692Z,7.00
2023-04-21T16:18:42.297Z,5.90
2023-04-21T16:21:11.020Z,5.40
2023-04-21T16:23:38.792Z,5.80
2023-04-21T16:26:08.374Z,5.38
2023-04-21T16:28:36.239Z,5.53
2023-04-21T16:31:04.294Z,21.08
2023-04-21T16:33:32.123Z,13.48
2023-04-21T16:35:59.628Z,10.50
2023-04-21T16:38:27.142Z,9.52
2023-04-21T16:40:54.849Z,9.43
2023-04-21T16:43:22.460Z,5.60
2023-04-21T16:45:50.014Z,6.00
2023-04-21T16:48:17.601Z,8.63
2023-04-21T16:50:45.716Z,8.97
2023-04-21T16:53:13.291Z,7.60
2023-04-21T16:55:40.783Z,9.00
2023-04-21T16:58:08.734Z,13.10
2023-04-21T17:00:37.633Z,6.83
2023-04-21T17:03:05.309Z,5.83
2023-04-21T17:05:32.867Z,6.87
2023-04-21T17:08:00.421Z,6.87
2023-04-21T17:10:27.966Z,6.97
2023-04-21T17:12:55.486Z,6.67
2023-04-21T17:15:23.012Z,10.40
2023-04-21T17:17:51.459Z,11.70
2023-04-21T17:20:19.021Z,9.33
2023-04-21T17:22:46.536Z,10.20
2023-04-21T17:25:14.061Z,6.93
2023-04-21T17:27:42.217Z,7.63
2023-04-21T17:30:11.481Z,7.90
2023-04-21T17:32:40.977Z,6.40
2023-04-21T17:35:09.119Z,6.73
2023-04-21T17:37:36.634Z,6.70
2023-04-21T17:40:05.228Z,6.10
2023-04-21T17:42:32.715Z,5.67
2023-04-21T17:45:00.202Z,6.93
2023-04-21T17:47:27.696Z,5.70
2023-04-21T17:49:55.230Z,5.80
2023-04-21T17:52:22.736Z,5.30
2023-04-21T17:54:50.298Z,5.50
2023-04-21T17:57:18.152Z,5.47
2023-04-21T17:59:45.802Z,4.50
2023-04-21T18:02:13.599Z,4.37
2023-04-21T18:04:41.740Z,5.20
2023-04-21T18:07:09.584Z,4.77
2023-04-21T18:09:37.416Z,4.97
2023-04-21T18:12:05.186Z,5.20
2023-04-21T18:14:32.968Z,5.70
2023-04-21T18:17:00.877Z,6.97
2023-04-21T18:19:28.345Z,8.07
2023-04-21T18:21:55.921Z,7.83
2023-04-21T18:24:23.477Z,6.53
2023-04-21T18:26:51.525Z,6.03
2023-04-21T18:29:19.814Z,6.33
2023-04-21T18:31:47.549Z,6.83
2023-04-21T18:34:15.318Z,7.10
2023-04-21T18:36:43.223Z,7.87
2023-04-21T18:39:11.722Z,7.50
2023-04-21T18:41:39.326Z,6.93
2023-04-21T18:44:07.008Z,6.90
2023-04-21T18:46:34.554Z,7.23
2023-04-21T18:49:02.084Z,8.00
2023-04-21T18:51:31.508Z,6.53
2023-04-21T18:53:59.017Z,7.37
2023-04-21T18:56:27.306Z,7.13
2023-04-21T18:58:54.887Z,7.97
2023-04-21T19:01:22.468Z,12.43
2023-04-21T19:03:50.275Z,9.50
2023-04-21T19:06:17.960Z,9.73
2023-04-21T19:08:45.505Z,11.97
2023-04-21T19:11:18.032Z,13.33
2023-04-21T19:13:45.588Z,12.67
2023-04-21T19:16:13.113Z,14.23
2023-04-21T19:18:41.682Z,14.60
2023-04-21T19:21:13.873Z,11.93
2023-04-21T19:23:41.996Z,11.60
2023-04-21T19:26:11.989Z,11.07
2023-04-21T19:28:43.555Z,11.17
2023-04-21T19:31:11.183Z,8.97
2023-04-21T19:33:38.685Z,7.40
2023-04-21T19:36:06.767Z,6.60
2023-04-21T19:38:34.215Z,5.90
2023-04-21T19:41:01.657Z,6.40
2023-04-21T19:43:29.138Z,6.40
2023-04-21T19:45:58.682Z,6.77
2023-04-21T19:48:26.871Z,6.53
2023-04-21T19:50:54.481Z,6.73
2023-04-21T19:53:21.938Z,6.63
2023-04-21T19:55:52.525Z,6.50
2023-04-21T19:58:36.315Z,6.50
2023-04-21T20:01:06.741Z,7.10
2023-04-21T20:03:34.691Z,7.10
2023-04-21T20:06:04.941Z,7.00
2023-04-21T20:08:32.691Z,6.50
2023-04-21T20:11:00.182Z,5.77
2023-04-21T20:13:27.711Z,5.70
2023-04-21T20:15:55.939Z,5.80
2023-04-21T20:18:23.567Z,8.60
2023-04-21T20:20:51.069Z,8.13
2023-04-21T20:23:18.828Z,9.30
2023-04-21T20:25:46.708Z,8.70
2023-04-21T20:28:14.260Z,7.93
2023-04-21T20:30:41.788Z,7.93
2023-04-21T20:33:09.653Z,12.70
2023-04-21T20:35:39.821Z,17.40
2023-04-21T20:38:10.722Z,13.13
2023-04-21T20:40:39.491Z,10.30
2023-04-21T20:43:07.753Z,8.33
2023-04-21T20:45:35.278Z,7.47
2023-04-21T20:48:02.760Z,5.50
2023-04-21T20:50:30.212Z,6.40
2023-04-21T20:52:58.275Z,5.80
2023-04-21T20:55:28.265Z,4.90
2023-04-21T20:57:55.767Z,4.90
2023-04-21T21:00:23.503Z,4.97
2023-04-21T21:02:53.783Z,4.47
2023-04-21T21:05:21.321Z,5.13
2023-04-21T21:07:48.944Z,4.73
2023-04-21T21:10:18.449Z,4.43
2023-04-21T21:12:46.150Z,4.73
2023-04-21T21:15:13.753Z,4.70
2023-04-21T21:17:42.305Z,4.90
2023-04-21T21:20:10.588Z,4.73
2023-04-21T21:22:38.219Z,4.60
2023-04-21T21:25:06.271Z,4.80
2023-04-21T21:27:33.800Z,4.60
2023-04-21T21:30:01.521Z,4.50
2023-04-21T21:32:29.311Z,4.27
2023-04-21T21:34:56.812Z,4.57
2023-04-21T21:37:25.913Z,4.37
2023-04-21T21:39:55.425Z,5.10
2023-04-21T21:42:23.164Z,4.77
2023-04-21T21:44:50.819Z,4.70
2023-04-21T21:47:18.454Z,5.27
2023-04-21T21:49:46.073Z,5.90
2023-04-21T21:52:15.188Z,6.30
2023-04-21T21:54:42.985Z,4.97
2023-04-21T21:57:10.509Z,4.80
2023-04-21T21:59:38.302Z,4.80
2023-04-21T22:02:06.715Z,5.00
2023-04-21T22:04:34.322Z,5.03
2023-04-21T22:07:02.050Z,4.70
2023-04-21T22:09:29.560Z,4.80
2023-04-21T22:11:57.133Z,4.70
2023-04-21T22:14:24.752Z,5.20
2023-04-21T22:16:53.343Z,5.47
2023-04-21T22:19:21.184Z,5.00
2023-04-21T22:21:49.239Z,4.73
2023-04-21T22:24:16.793Z,4.60
2023-04-21T22:26:45.011Z,4.57
2023-04-21T22:29:12.516Z,4.80
2023-04-21T22:31:40.144Z,4.70
2023-04-21T22:34:07.700Z,5.00
2023-04-21T22:36:35.327Z,5.00
2023-04-21T22:39:02.831Z,4.73
2023-04-21T22:41:30.398Z,4.70
2023-04-21T22:43:57.879Z,4.70
2023-04-21T22:46:25.644Z,4.60
2023-04-21T22:48:54.351Z,4.60
2023-04-21T22:51:23.230Z,4.40
2023-04-21T22:53:50.730Z,5.47
2023-04-21T22:56:18.283Z,6.30
2023-04-21T22:58:45.752Z,7.43
2023-04-21T23:01:13.575Z,5.83
2023-04-21T23:03:41.439Z,5.63
2023-04-21T23:06:09.037Z,5.50
2023-04-21T23:08:36.736Z,5.67
2023-04-21T23:11:04.540Z,5.20
2023-04-21T23:13:35.065Z,5.33
2023-04-21T23:16:02.605Z,5.10
2023-04-21T23:18:30.138Z,5.40
2023-04-21T23:20:58.759Z,5.77
2023-04-21T23:23:26.296Z,5.53
2023-04-21T23:25:53.877Z,5.50
2023-04-21T23:28:21.795Z,5.73
2023-04-21T23:30:49.334Z,5.30
2023-04-21T23:33:17.016Z,5.70
2023-04-21T23:35:44.973Z,6.40
2023-04-21T23:38:12.397Z,8.07
2023-04-21T23:40:39.929Z,35.43
2023-04-21T23:43:07.831Z,70.53
2023-04-21T23:45:35.447Z,53.60
2023-04-21T23:48:03.053Z,46.77
2023-04-21T23:50:30.651Z,25.50
2023-04-21T23:52:58.214Z,14.67
2023-04-21T23:55:26.625Z,7.20
2023-04-21T23:57:54.205Z,5.90
